Time;durP1;ratioP1;P1;durP2;ratioP2;P2;SDS_P1;SDS_P2;PMS_P1;PMS_P2;Temp;Humidity;BMP_temperature;BMP_pressure;BME280_temperature;BME280_humidity;BME280_pressure;Samples;Min_cycle;Max_cycle;Signal;HPM_P1;HPM_P2
2022/07/19 00:02:21;;;;;;;;;10.33;10.33;;;;;30.72;32.37;101254.03;5077145;28;61010;-77
2022/07/19 00:04:46;;;;;;;;;9.00;9.00;;;;;30.72;32.81;101261.31;5077121;28;61580;-76
2022/07/19 00:07:12;;;;;;;;;10.00;10.00;;;;;30.65;33.12;101255.38;5077185;28;54547;-76
2022/07/19 00:09:37;;;;;;;;;10.33;9.67;;;;;30.61;32.85;101245.66;5077325;28;46703;-77
2022/07/19 00:12:03;;;;;;;;;12.00;9.00;;;;;30.60;32.52;101243.91;5076209;27;64221;-76
2022/07/19 00:14:28;;;;;;;;;9.33;9.33;;;;;30.56;33.03;101241.47;5075206;28;54004;-75
2022/07/19 00:16:53;;;;;;;;;9.00;9.00;;;;;30.52;32.68;101252.59;5072297;28;63194;-78
2022/07/19 00:19:19;;;;;;;;;7.33;7.33;;;;;30.51;33.18;101241.78;5076177;27;46468;-75
2022/07/19 00:21:44;;;;;;;;;10.00;8.67;;;;;30.48;33.04;101242.00;5077295;28;45307;-76
2022/07/19 00:24:10;;;;;;;;;10.00;9.00;;;;;30.47;33.40;101243.00;5076353;28;64585;-75
2022/07/19 00:26:35;;;;;;;;;9.00;8.67;;;;;30.45;33.20;101239.47;5077032;28;45306;-76
2022/07/19 00:29:01;;;;;;;;;9.67;9.33;;;;;30.42;33.01;101240.56;5076770;28;55803;-76
2022/07/19 00:31:27;;;;;;;;;12.00;9.00;;;;;30.38;33.23;101239.00;5077023;28;45357;-76
2022/07/19 00:33:52;;;;;;;;;9.67;9.33;;;;;30.38;33.13;101244.47;5077224;28;45623;-76
2022/07/19 00:36:18;;;;;;;;;12.67;10.67;;;;;30.35;32.88;101243.78;5076709;28;55377;-75
2022/07/19 00:38:44;;;;;;;;;11.67;10.67;;;;;30.31;33.04;101244.94;5076586;28;46593;-75
2022/07/19 00:41:09;;;;;;;;;9.00;9.00;;;;;30.30;33.15;101237.75;5076735;28;45299;-76
2022/07/19 00:43:35;;;;;;;;;8.33;8.33;;;;;30.27;33.20;101247.00;5076026;28;51620;-76
2022/07/19 00:46:00;;;;;;;;;10.00;8.00;;;;;30.25;33.47;101244.34;5077154;28;45482;-76
2022/07/19 00:48:26;;;;;;;;;10.00;8.33;;;;;30.22;33.21;101244.56;5076527;28;46554;-76
2022/07/19 00:50:52;;;;;;;;;7.33;7.33;;;;;30.19;33.47;101242.03;5076008;28;45521;-75
2022/07/19 00:53:33;;;;;;;;;10.00;9.33;;;;;30.13;32.85;101234.28;5077117;28;45446;-76
2022/07/19 00:55:59;;;;;;;;;9.67;8.33;;;;;30.11;33.51;101232.59;5076698;28;46662;-76
2022/07/19 00:58:25;;;;;;;;;9.67;8.67;;;;;30.07;33.45;101234.63;5057549;28;67414;-77
2022/07/19 01:00:51;;;;;;;;;10.00;8.67;;;;;30.04;33.63;101232.09;5075948;28;46738;-76
2022/07/19 01:03:17;;;;;;;;;10.00;7.67;;;;;30.01;33.75;101230.47;5076682;28;45302;-76
2022/07/19 01:05:46;;;;;;;;;13.00;11.33;;;;;29.97;33.63;101233.47;5076165;28;58114;-76
2022/07/19 01:08:12;;;;;;;;;11.67;10.00;;;;;29.96;33.82;101234.44;5058172;28;46771;-76
2022/07/19 01:10:37;;;;;;;;;12.33;9.33;;;;;29.92;33.61;101222.88;5076615;28;45340;-76
2022/07/19 01:13:02;;;;;;;;;9.00;9.00;;;;;29.89;33.65;101222.22;5075963;28;45355;-76
2022/07/19 01:15:28;;;;;;;;;8.67;7.33;;;;;29.86;33.89;101219.66;5070949;28;45264;-76
2022/07/19 01:17:54;;;;;;;;;10.00;8.67;;;;;29.83;33.68;101222.56;5075654;27;46397;-76
2022/07/19 01:20:23;;;;;;;;;9.67;9.67;;;;;29.80;34.03;101217.34;5075989;28;45548;-77
2022/07/19 01:22:48;;;;;;;;;10.00;10.00;;;;;29.77;34.46;101220.25;5076358;28;45429;-76
2022/07/19 01:25:15;;;;;;;;;12.00;10.00;;;;;29.74;34.08;101226.78;5075433;28;58511;-76
2022/07/19 01:27:47;;;;;;;;;13.00;9.00;;;;;29.72;34.33;101223.25;5075731;28;47421;-76
2022/07/19 01:30:15;;;;;;;;;13.00;7.67;;;;;29.68;34.00;101225.31;5076009;28;45445;-76
2022/07/19 01:32:40;;;;;;;;;11.00;9.33;;;;;29.64;34.02;101220.16;5072048;28;45400;-76
2022/07/19 01:35:07;;;;;;;;;14.33;9.67;;;;;29.61;34.54;101218.47;5076049;28;45576;-76
2022/07/19 01:37:33;;;;;;;;;9.33;9.33;;;;;29.58;34.19;101221.41;5075554;28;47405;-76
2022/07/19 01:39:58;;;;;;;;;10.33;10.00;;;;;29.54;34.43;101214.41;5076364;28;45391;-76
2022/07/19 01:42:24;;;;;;;;;10.67;9.00;;;;;29.50;34.39;101212.81;5076012;28;45448;-78
2022/07/19 01:44:50;;;;;;;;;11.33;9.00;;;;;29.47;34.40;101213.00;5076281;28;45402;-77
2022/07/19 01:47:15;;;;;;;;;13.33;10.67;;;;;29.43;34.61;101216.88;5075514;28;47001;-76
2022/07/19 01:49:40;;;;;;;;;10.33;9.00;;;;;29.40;34.67;101212.53;5056946;28;45555;-76
2022/07/19 01:52:06;;;;;;;;;10.00;10.00;;;;;29.37;34.61;101211.81;5057994;28;49382;-76
2022/07/19 01:54:31;;;;;;;;;10.67;8.67;;;;;29.34;34.70;101207.44;5075532;28;62227;-76
2022/07/19 01:56:56;;;;;;;;;8.33;7.67;;;;;29.33;34.78;101210.25;5075182;28;47436;-76
2022/07/19 01:59:22;;;;;;;;;7.33;7.33;;;;;29.30;34.67;101210.47;5074726;28;65342;-76
2022/07/19 02:01:47;;;;;;;;;10.33;9.33;;;;;29.27;34.68;101213.34;5074682;28;59387;-77
2022/07/19 02:04:12;;;;;;;;;10.00;10.00;;;;;29.23;34.82;101207.22;5077442;28;57485;-76
2022/07/19 02:06:38;;;;;;;;;9.33;7.67;;;;;29.20;34.74;101207.44;5078039;28;69532;-76
2022/07/19 02:09:03;;;;;;;;;10.00;9.00;;;;;29.17;34.86;101216.63;5078569;28;67453;-78
2022/07/19 02:11:34;;;;;;;;;10.67;9.00;;;;;29.17;34.88;101199.44;5079303;28;45616;-77
2022/07/19 02:14:00;;;;;;;;;10.33;8.00;;;;;29.16;34.71;101206.72;5074814;28;45577;-77
2022/07/19 02:16:25;;;;;;;;;10.67;7.00;;;;;29.14;34.90;101205.97;5079436;28;46574;-77
2022/07/19 02:18:50;;;;;;;;;9.00;7.00;;;;;29.11;34.75;101200.69;5078700;28;45441;-77
2022/07/19 02:21:17;;;;;;;;;7.00;7.00;;;;;29.10;34.64;101195.34;5078831;27;63869;-78
2022/07/19 02:23:42;;;;;;;;;10.33;7.00;;;;;29.07;34.84;101199.13;5079477;28;45645;-76
2022/07/19 02:26:08;;;;;;;;;8.00;8.00;;;;;29.04;35.00;101193.88;5079010;28;58672;-77
2022/07/19 02:28:33;;;;;;;;;10.33;9.00;;;;;29.04;34.68;101190.28;5078637;28;45466;-77
2022/07/19 02:30:58;;;;;;;;;11.00;9.00;;;;;29.02;35.01;101195.81;5077979;27;59739;-77
2022/07/19 02:33:23;;;;;;;;;8.00;8.00;;;;;28.99;34.96;101182.41;5078497;28;57241;-76
2022/07/19 02:35:49;;;;;;;;;9.00;7.67;;;;;28.98;34.88;101191.53;5078577;28;56996;-76
2022/07/19 02:38:14;;;;;;;;;10.00;8.00;;;;;28.96;34.75;101186.16;5078036;28;65684;-77
2022/07/19 02:40:39;;;;;;;;;8.00;5.00;;;;;28.94;34.94;101190.84;5078267;28;58443;-77
2022/07/19 02:43:05;;;;;;;;;10.33;7.00;;;;;28.92;34.95;101186.41;5078444;28;57371;-76
2022/07/19 02:45:30;;;;;;;;;8.00;8.00;;;;;28.87;35.07;101174.94;5073178;28;65713;-77
2022/07/19 02:47:55;;;;;;;;;8.33;8.33;;;;;28.86;35.18;101174.06;5078991;28;46525;-76
2022/07/19 02:50:21;;;;;;;;;7.67;7.67;;;;;28.82;34.93;101177.09;5078121;28;58186;-76
2022/07/19 02:52:46;;;;;;;;;8.00;7.00;;;;;28.81;35.18;101172.59;5078148;28;61030;-76
2022/07/19 02:55:11;;;;;;;;;9.00;9.00;;;;;28.79;35.31;101180.84;5077594;28;65229;-76
2022/07/19 02:57:37;;;;;;;;;8.00;8.00;;;;;28.75;35.19;101173.84;5077106;28;64057;-76
2022/07/19 03:00:10;;;;;;;;;6.00;6.00;;;;;28.76;34.82;101177.41;5078472;28;45476;-76
2022/07/19 03:02:35;;;;;;;;;8.67;6.00;;;;;28.71;35.14;101181.31;5061125;28;45600;-77
2022/07/19 03:05:00;;;;;;;;;10.33;6.67;;;;;28.70;35.16;101173.22;5077232;28;64006;-77
2022/07/19 03:07:26;;;;;;;;;9.33;7.67;;;;;28.68;35.41;101172.47;5078583;28;45425;-76
2022/07/19 03:09:51;;;;;;;;;9.00;7.33;;;;;28.67;35.30;101170.72;5077906;28;60711;-76
2022/07/19 03:12:16;;;;;;;;;7.00;7.00;;;;;28.64;35.58;101166.31;5077534;28;61893;-77
2022/07/19 03:14:42;;;;;;;;;12.33;7.33;;;;;28.62;35.62;101167.38;5077340;28;64257;-76
2022/07/19 03:17:07;;;;;;;;;11.67;10.00;;;;;28.60;35.38;101169.31;5076750;28;45607;-76
2022/07/19 03:19:32;;;;;;;;;6.33;6.33;;;;;28.58;35.68;101176.69;5078543;28;45445;-75
2022/07/19 03:21:58;;;;;;;;;8.67;8.00;;;;;28.55;35.65;101171.41;5077756;28;57961;-76
2022/07/19 03:24:23;;;;;;;;;8.00;7.00;;;;;28.53;35.82;101171.50;5077037;28;68642;-76
2022/07/19 03:26:49;;;;;;;;;11.00;8.00;;;;;28.51;35.62;101165.31;5077712;28;45211;-76
2022/07/19 03:29:14;;;;;;;;;6.33;6.33;;;;;28.47;35.74;101162.84;5078199;28;45293;-76
2022/07/19 03:31:39;;;;;;;;;7.67;6.67;;;;;28.46;36.00;101170.13;5055814;28;45548;-77
2022/07/19 03:34:05;;;;;;;;;10.00;7.00;;;;;28.43;36.23;101170.28;5077178;28;67151;-76
2022/07/19 03:36:30;;;;;;;;;7.33;6.00;;;;;28.41;36.17;101175.81;5077613;28;45365;-76
2022/07/19 03:38:56;;;;;;;;;7.67;7.67;;;;;28.37;36.05;101173.38;5077876;28;45521;-78
2022/07/19 03:41:21;;;;;;;;;8.67;7.33;;;;;28.34;36.04;101173.56;5078380;28;45283;-76
2022/07/19 03:43:47;;;;;;;;;9.00;9.00;;;;;28.32;36.04;101172.72;5077391;28;47446;-76
2022/07/19 03:46:12;;;;;;;;;9.00;7.33;;;;;28.30;36.16;101167.41;5078089;28;45280;-76
2022/07/19 03:48:38;;;;;;;;;9.33;7.33;;;;;28.28;36.36;101168.44;5077861;28;45625;-76
2022/07/19 03:51:03;;;;;;;;;10.33;8.67;;;;;28.25;36.17;101165.91;5077610;28;58762;-76
2022/07/19 03:53:28;;;;;;;;;10.00;7.00;;;;;28.23;36.17;101165.09;5077254;28;47460;-75
2022/07/19 03:55:54;;;;;;;;;8.33;8.33;;;;;28.22;36.26;101163.34;5077345;28;65129;-76
2022/07/19 03:58:19;;;;;;;;;9.00;7.33;;;;;28.19;36.29;101161.72;5076241;28;58827;-76
2022/07/19 04:00:45;;;;;;;;;8.00;7.00;;;;;28.15;36.67;101166.44;5078291;28;50765;-77
2022/07/19 04:03:11;;;;;;;;;8.67;7.67;;;;;28.13;36.50;101168.38;5077583;28;47227;-76
2022/07/19 04:05:36;;;;;;;;;7.00;6.67;;;;;28.11;36.43;101167.56;5076172;28;45549;-77
2022/07/19 04:08:02;;;;;;;;;8.33;8.00;;;;;28.10;36.68;101167.66;5077210;28;59305;-77
2022/07/19 04:10:27;;;;;;;;;10.00;8.00;;;;;28.09;37.14;101164.06;5077835;28;46816;-76
2022/07/19 04:12:52;;;;;;;;;8.67;7.33;;;;;28.08;36.56;101169.59;5076907;28;46538;-78
2022/07/19 04:15:18;;;;;;;;;8.00;8.00;;;;;28.07;36.38;101168.72;5077108;28;45533;-77
2022/07/19 04:17:43;;;;;;;;;6.33;6.00;;;;;28.05;36.91;101167.03;5077414;28;45418;-76
2022/07/19 04:20:09;;;;;;;;;7.67;7.67;;;;;28.05;37.07;101169.75;5077192;28;45569;-76
2022/07/19 04:22:34;;;;;;;;;6.00;6.00;;;;;28.00;36.84;101167.28;5077395;28;47525;-79
2022/07/19 04:25:02;;;;;;;;;6.67;6.67;;;;;28.00;36.68;101164.56;5075703;28;67364;-78
2022/07/19 04:27:28;;;;;;;;;8.00;7.33;;;;;28.02;37.18;101164.47;5075887;28;45218;-77
2022/07/19 04:29:53;;;;;;;;;8.00;7.33;;;;;27.99;37.40;101161.97;5077393;28;45543;-78
2022/07/19 04:32:18;;;;;;;;;9.67;7.33;;;;;27.99;37.01;101172.81;5076493;27;47167;-76
2022/07/19 04:34:44;;;;;;;;;9.33;9.00;;;;;27.96;37.12;101159.41;5077055;28;45445;-77
2022/07/19 04:37:09;;;;;;;;;8.00;6.33;;;;;27.97;37.65;101163.91;5075683;28;64878;-76
2022/07/19 04:39:34;;;;;;;;;8.00;8.00;;;;;27.96;37.66;101163.00;5058404;28;60561;-76
2022/07/19 04:42:00;;;;;;;;;9.67;7.67;;;;;27.94;37.75;101154.06;5075898;28;71689;-77
2022/07/19 04:44:25;;;;;;;;;8.67;8.67;;;;;27.94;37.49;101157.66;5076201;28;65008;-77
2022/07/19 04:46:50;;;;;;;;;7.00;7.00;;;;;27.93;37.51;101161.34;5076584;28;58253;-76
2022/07/19 04:49:16;;;;;;;;;8.67;6.33;;;;;27.92;37.92;101154.16;5076225;28;60926;-76
2022/07/19 04:51:41;;;;;;;;;9.00;8.00;;;;;27.91;37.78;101159.66;5076302;28;55331;-76
2022/07/19 04:54:06;;;;;;;;;9.33;8.00;;;;;27.92;37.97;101159.59;5076101;28;64211;-77
2022/07/19 04:56:32;;;;;;;;;12.67;7.00;;;;;27.94;37.87;101156.78;5075702;28;60482;-77
2022/07/19 04:58:57;;;;;;;;;9.33;7.00;;;;;27.92;37.45;101147.88;5076681;28;46194;-76
2022/07/19 05:01:22;;;;;;;;;8.00;6.00;;;;;27.92;37.50;101146.03;5076395;27;47621;-76
2022/07/19 05:03:48;;;;;;;;;11.00;8.00;;;;;27.93;37.57;101139.63;5075314;28;61898;-78
2022/07/19 05:06:13;;;;;;;;;8.00;8.00;;;;;27.92;37.75;101146.03;5076999;28;45527;-76
2022/07/19 05:08:38;;;;;;;;;9.67;7.00;;;;;27.92;37.52;101151.44;5075978;28;60670;-76
2022/07/19 05:11:04;;;;;;;;;10.33;8.33;;;;;27.92;37.87;101145.16;5075131;28;67540;-76
2022/07/19 05:13:29;;;;;;;;;11.67;8.33;;;;;27.92;37.47;101147.88;5076759;28;45324;-76
2022/07/19 05:15:55;;;;;;;;;9.33;8.67;;;;;27.93;38.46;101152.31;5076002;28;45443;-77
2022/07/19 05:18:20;;;;;;;;;12.00;9.00;;;;;27.92;38.11;101146.03;5076527;28;45428;-76
2022/07/19 05:20:45;;;;;;;;;9.00;7.67;;;;;27.92;38.56;101142.44;5075289;28;70966;-77
2022/07/19 05:23:11;;;;;;;;;10.67;9.33;;;;;27.92;38.42;101146.03;5075930;28;45501;-77
2022/07/19 05:25:36;;;;;;;;;10.67;8.67;;;;;27.90;38.94;101138.91;5075858;28;61939;-76
2022/07/19 05:28:01;;;;;;;;;8.00;7.33;;;;;27.93;38.33;101149.63;5075811;28;45553;-77
2022/07/19 05:30:27;;;;;;;;;10.67;9.00;;;;;27.93;38.80;101149.63;5075681;28;47763;-79
2022/07/19 05:32:52;;;;;;;;;9.33;8.00;;;;;27.93;38.88;101139.63;5076180;28;45409;-77
2022/07/19 05:35:17;;;;;;;;;9.00;7.00;;;;;27.95;38.81;101136.81;5074921;28;59872;-78
2022/07/19 05:37:43;;;;;;;;;10.33;6.67;;;;;27.97;39.28;101140.34;5075709;28;63395;-78
2022/07/19 05:40:09;;;;;;;;;11.67;10.00;;;;;27.95;39.05;101136.81;5070189;28;65487;-77
2022/07/19 05:42:34;;;;;;;;;10.00;8.33;;;;;27.99;39.46;101137.53;5069148;28;45894;-77
2022/07/19 05:44:59;;;;;;;;;12.33;11.00;;;;;28.00;38.97;101139.28;5056552;28;55696;-76
2022/07/19 05:47:25;;;;;;;;;15.67;9.33;;;;;28.01;39.68;101131.03;5074818;28;45694;-77
2022/07/19 05:49:50;;;;;;;;;11.00;10.00;;;;;28.04;39.35;101136.31;5074013;28;69827;-76
2022/07/19 05:52:15;;;;;;;;;11.67;7.67;;;;;28.05;39.68;101134.47;5074848;28;66876;-76
2022/07/19 05:54:41;;;;;;;;;10.00;9.00;;;;;28.06;39.44;101126.22;5074776;28;45408;-76
2022/07/19 05:57:06;;;;;;;;;14.67;11.67;;;;;28.09;39.57;101134.19;5074232;28;45676;-77
2022/07/19 05:59:35;;;;;;;;;11.00;9.67;;;;;28.12;38.97;101128.56;5072031;28;63753;-76
2022/07/19 06:02:00;;;;;;;;;10.00;7.67;;;;;28.16;39.15;101127.44;5072599;28;45504;-74
2022/07/19 06:04:26;;;;;;;;;11.67;10.00;;;;;28.18;39.47;101130.97;5055547;28;45385;-74
2022/07/19 06:06:51;;;;;;;;;13.33;9.33;;;;;28.20;38.95;101129.03;5073752;28;45561;-75
2022/07/19 06:09:16;;;;;;;;;10.67;9.00;;;;;28.24;39.06;101131.56;5073850;28;69655;-75
2022/07/19 06:11:42;;;;;;;;;10.00;10.00;;;;;28.26;39.44;101122.34;5073362;28;50943;-75
2022/07/19 06:14:08;;;;;;;;;10.33;9.33;;;;;28.30;39.44;101125.78;5070025;28;45633;-75
2022/07/19 06:16:35;;;;;;;;;15.00;11.33;;;;;28.32;39.96;101122.00;5075388;28;45436;-75
2022/07/19 06:19:01;;;;;;;;;10.33;9.00;;;;;28.35;39.67;101123.72;5072989;28;46563;-75
2022/07/19 06:21:26;;;;;;;;;14.00;10.67;;;;;28.38;39.84;101118.06;5076029;28;45311;-75
2022/07/19 06:23:51;;;;;;;;;12.33;10.00;;;;;28.43;39.76;101115.97;5075663;28;45569;-75
2022/07/19 06:26:17;;;;;;;;;9.67;9.00;;;;;28.46;40.03;101107.66;5076171;28;45465;-76
2022/07/19 06:28:43;;;;;;;;;11.67;9.67;;;;;28.50;39.85;101111.03;5074618;28;59116;-75
2022/07/19 06:31:12;;;;;;;;;13.33;10.67;;;;;28.52;39.62;101107.28;5073822;28;63082;-75
2022/07/19 06:33:39;;;;;;;;;12.00;11.33;;;;;28.56;40.18;101102.53;5070261;28;45393;-74
2022/07/19 06:36:05;;;;;;;;;12.00;11.00;;;;;28.61;40.08;101100.44;5074125;28;45325;-75
2022/07/19 06:38:30;;;;;;;;;8.33;6.00;;;;;28.65;39.95;101104.69;5074170;28;47079;-75
2022/07/19 06:40:56;;;;;;;;;7.33;6.00;;;;;28.67;40.95;101094.63;5071285;28;64284;-76
2022/07/19 06:43:21;;;;;;;;;10.00;8.00;;;;;28.71;40.82;101096.19;5073727;28;62247;-78
2022/07/19 06:45:46;;;;;;;;;9.00;9.00;;;;;28.73;39.91;101088.81;5069439;27;61463;-75
2022/07/19 06:48:12;;;;;;;;;8.00;8.00;;;;;28.77;39.97;101089.50;5070002;28;64746;-76
2022/07/19 06:50:37;;;;;;;;;11.00;10.67;;;;;28.81;38.97;101093.75;5070882;27;67644;-75
2022/07/19 06:53:02;;;;;;;;;14.00;10.00;;;;;28.85;39.16;101092.63;5070001;28;60345;-76
2022/07/19 06:55:28;;;;;;;;;11.33;9.33;;;;;28.91;38.54;101090.38;5072091;28;45537;-76
2022/07/19 06:57:53;;;;;;;;;12.67;10.00;;;;;28.96;38.54;101092.84;5071705;28;46405;-76
2022/07/19 07:00:19;;;;;;;;;12.33;11.00;;;;;29.00;38.38;101099.88;5076606;28;55242;-76
2022/07/19 07:02:44;;;;;;;;;15.00;12.00;;;;;29.05;37.97;101100.47;5071986;28;53155;-74
2022/07/19 07:05:11;;;;;;;;;10.33;9.00;;;;;29.08;38.23;101092.09;5074328;28;45426;-75
2022/07/19 07:07:37;;;;;;;;;12.33;10.00;;;;;29.13;37.61;101100.84;5074738;28;47453;-75
2022/07/19 07:10:06;;;;;;;;;9.00;9.00;;;;;29.18;37.60;101089.69;5072320;28;45424;-75
2022/07/19 07:12:31;;;;;;;;;11.00;9.67;;;;;29.23;37.28;101088.41;5077664;28;45481;-76
2022/07/19 07:14:57;;;;;;;;;11.00;10.33;;;;;29.27;37.37;101085.50;5071733;28;45474;-76
2022/07/19 07:17:22;;;;;;;;;10.00;8.67;;;;;29.32;37.17;101086.09;5075846;28;66170;-76
2022/07/19 07:19:47;;;;;;;;;9.67;9.00;;;;;29.35;36.71;101075.00;5075410;28;51716;-76
2022/07/19 07:22:13;;;;;;;;;17.67;11.67;;;;;29.39;37.16;101074.72;5067981;28;58222;-75
2022/07/19 07:24:38;;;;;;;;;15.00;11.00;;;;;29.43;36.98;101070.84;5068461;28;45541;-74
2022/07/19 07:27:04;;;;;;;;;11.00;11.00;;;;;29.48;37.06;101065.09;5074227;28;71471;-75
2022/07/19 07:29:29;;;;;;;;;11.33;11.33;;;;;29.52;36.88;101061.22;5068929;28;45360;-75
2022/07/19 07:31:55;;;;;;;;;13.33;12.33;;;;;29.55;36.77;101060.16;5073118;28;62486;-75
2022/07/19 07:34:20;;;;;;;;;15.33;10.00;;;;;29.58;36.81;101060.84;5074328;28;45599;-74
2022/07/19 07:36:46;;;;;;;;;9.00;9.00;;;;;29.62;37.09;101054.25;5072346;28;45500;-74
2022/07/19 07:39:12;;;;;;;;;12.67;10.00;;;;;29.65;37.14;101056.75;5072758;28;46798;-74
2022/07/19 07:41:37;;;;;;;;;11.33;10.00;;;;;29.67;36.71;101057.53;5074123;28;45477;-76
2022/07/19 07:44:03;;;;;;;;;11.00;9.67;;;;;29.69;37.03;101050.13;5072355;28;45624;-76
2022/07/19 07:46:28;;;;;;;;;12.00;10.00;;;;;29.73;36.23;101048.09;5075285;28;47138;-75
2022/07/19 07:48:53;;;;;;;;;12.67;12.00;;;;;29.78;36.01;101045.94;5076798;28;45282;-76
2022/07/19 07:51:19;;;;;;;;;11.00;11.00;;;;;29.83;36.40;101042.88;5074998;28;62917;-75
2022/07/19 07:53:44;;;;;;;;;9.67;9.67;;;;;29.88;36.23;101046.19;5067528;28;45581;-76
2022/07/19 07:56:09;;;;;;;;;17.33;11.33;;;;;29.92;36.17;101045.00;5073660;28;54035;-76
2022/07/19 07:58:35;;;;;;;;;12.33;12.33;;;;;29.95;36.46;101040.25;5071154;28;68204;-74
2022/07/19 08:01:00;;;;;;;;;14.67;11.33;;;;;30.00;35.99;101037.22;5073563;28;56617;-76
2022/07/19 08:03:25;;;;;;;;;11.67;9.33;;;;;30.05;36.42;101034.19;5072636;28;45653;-77
2022/07/19 08:05:51;;;;;;;;;11.00;11.00;;;;;30.09;36.22;101024.81;5074314;28;46912;-77
2022/07/19 08:08:17;;;;;;;;;9.00;9.00;;;;;30.13;35.90;101029.13;5074841;28;45434;-75
2022/07/19 08:10:42;;;;;;;;;10.00;8.67;;;;;30.18;35.08;101019.66;5073858;28;45482;-76
2022/07/19 08:13:08;;;;;;;;;11.33;10.00;;;;;30.23;35.14;101022.94;5071335;28;63493;-76
2022/07/19 08:15:35;;;;;;;;;11.33;10.00;;;;;30.31;35.58;101024.25;5072912;28;47429;-76
2022/07/19 08:18:01;;;;;;;;;12.67;11.33;;;;;30.33;35.85;101022.31;5072958;28;45581;-76
2022/07/19 08:20:27;;;;;;;;;10.33;10.33;;;;;30.37;35.74;101023.84;5072005;28;45455;-79
2022/07/19 08:22:52;;;;;;;;;15.00;11.33;;;;;30.39;35.59;101014.59;5072981;28;45572;-78
2022/07/19 08:25:17;;;;;;;;;14.00;9.00;;;;;30.45;34.87;101013.28;5072111;28;69118;-79
2022/07/19 08:27:44;;;;;;;;;11.67;11.67;;;;;30.51;35.30;101012.84;5071729;28;45412;-78
2022/07/19 08:30:10;;;;;;;;;8.67;8.67;;;;;30.55;34.42;101008.94;5064545;28;45528;-79
2022/07/19 08:32:36;;;;;;;;;13.33;11.00;;;;;30.60;34.63;101009.50;5073386;28;45513;-79
2022/07/19 08:35:02;;;;;;;;;14.33;11.00;;;;;30.64;34.25;101005.59;5073245;28;47760;-77
2022/07/19 08:37:28;;;;;;;;;13.33;11.00;;;;;30.69;34.58;101005.25;5075861;28;45589;-78
2022/07/19 08:39:53;;;;;;;;;12.00;11.00;;;;;30.72;33.67;101007.78;5071459;28;45521;-77
2022/07/19 08:42:20;;;;;;;;;14.67;12.00;;;;;30.78;34.24;100996.44;5072274;28;62756;-78
2022/07/19 08:44:47;;;;;;;;;13.00;11.67;;;;;30.84;34.01;100998.75;5056255;28;47054;-77
2022/07/19 08:47:13;;;;;;;;;12.67;12.00;;;;;30.90;34.01;100994.72;5071777;28;45457;-79
2022/07/19 08:49:42;;;;;;;;;9.00;9.00;;;;;30.96;32.95;100997.00;5071844;28;45566;-78
2022/07/19 08:52:07;;;;;;;;;11.33;9.33;;;;;31.04;33.11;100997.31;5072993;28;45531;-78
2022/07/19 08:54:33;;;;;;;;;14.33;10.00;;;;;31.09;31.81;100989.66;5052386;28;67745;-78
2022/07/19 08:59:43;;;;;;;;;12.33;9.67;;;;;31.23;32.17;100992.28;5075220;28;45508;-78
2022/07/19 09:02:08;;;;;;;;;10.33;10.33;;;;;31.27;32.33;100984.78;5073910;28;45572;-79
2022/07/19 09:04:34;;;;;;;;;10.67;9.00;;;;;31.34;32.22;100985.19;5068389;28;66869;-80
2022/07/19 09:06:59;;;;;;;;;11.67;9.00;;;;;31.42;31.42;100985.47;5061749;28;55223;-79
2022/07/19 09:09:28;;;;;;;;;13.67;10.67;;;;;31.49;32.04;100984.06;5073209;28;45596;-77
2022/07/19 09:11:55;;;;;;;;;9.33;9.33;;;;;31.56;32.04;100979.88;5134772;22;45670;-79
2022/07/19 09:14:28;;;;;;;;;10.00;9.00;;;;;31.62;32.08;100976.69;5064669;28;46454;-79
2022/07/19 09:17:19;;;;;;;;;13.67;10.00;;;;;31.66;31.58;100967.28;5074604;28;47500;-79
2022/07/19 09:19:47;;;;;;;;;11.33;9.00;;;;;31.71;30.11;100965.06;5071468;28;45470;-79
2022/07/19 09:22:15;;;;;;;;;9.00;8.67;;;;;31.76;31.29;100962.88;5048063;28;45617;-79
2022/07/19 09:24:49;;;;;;;;;9.67;9.67;;;;;31.84;31.05;100970.50;5075132;27;46513;-79
2022/07/19 09:27:16;;;;;;;;;9.67;8.67;;;;;31.89;30.67;100962.81;5073168;28;45541;-79
2022/07/19 09:29:44;;;;;;;;;8.67;8.67;;;;;31.94;30.35;100954.28;5075591;28;45402;-79
2022/07/19 09:32:17;;;;;;;;;11.00;10.00;;;;;32.00;30.69;100957.41;5071728;28;45538;-79
2022/07/19 09:34:54;;;;;;;;;11.33;10.00;;;;;32.06;30.28;100954.19;5066131;28;46983;-79
2022/07/19 09:37:28;;;;;;;;;10.00;10.00;;;;;32.19;29.45;100947.81;5075189;28;45549;-77
2022/07/19 09:39:59;;;;;;;;;10.00;7.33;;;;;32.25;29.41;100948.19;5074633;28;45481;-79
2022/07/19 09:42:44;;;;;;;;;10.00;8.33;;;;;32.39;28.89;100944.41;5075720;28;45518;-77
2022/07/19 09:45:14;;;;;;;;;11.33;8.33;;;;;32.49;28.23;100939.97;5074268;28;47844;-78
2022/07/19 09:47:45;;;;;;;;;11.00;9.00;;;;;32.56;27.81;100941.22;5062756;28;45984;-78
2022/07/19 09:50:21;;;;;;;;;9.00;9.00;;;;;32.64;27.55;100926.91;5065273;28;45461;-79
2022/07/19 09:52:48;;;;;;;;;12.67;8.00;;;;;32.73;27.38;100920.72;5066456;28;45419;-78
2022/07/19 09:55:14;;;;;;;;;9.00;9.00;;;;;32.81;26.95;100920.06;5069035;28;46830;-79
2022/07/19 09:57:41;;;;;;;;;9.33;8.67;;;;;32.89;27.44;100924.97;5070522;28;45398;-79
2022/07/19 10:00:08;;;;;;;;;9.67;8.00;;;;;32.95;26.80;100919.88;5062951;28;45425;-78
2022/07/19 10:02:39;;;;;;;;;9.00;9.00;;;;;33.03;26.49;100930.19;5066420;28;45554;-78
2022/07/19 10:05:06;;;;;;;;;10.00;9.00;;;;;33.11;26.36;100919.47;5056096;28;46300;-78
2022/07/19 10:07:32;;;;;;;;;10.33;9.00;;;;;33.15;26.85;100912.75;5074095;28;45668;-78
2022/07/19 10:10:01;;;;;;;;;9.33;8.00;;;;;33.22;26.64;100915.84;5069162;28;45690;-78
2022/07/19 10:12:27;;;;;;;;;13.67;10.00;;;;;33.29;26.45;100906.13;5073289;28;45545;-78
2022/07/19 10:14:53;;;;;;;;;9.00;7.67;;;;;33.35;27.20;100901.03;5071463;28;46466;-78
2022/07/19 10:17:21;;;;;;;;;8.00;7.33;;;;;33.41;26.68;100893.31;5068000;28;58200;-78
2022/07/19 10:19:48;;;;;;;;;13.33;9.00;;;;;33.51;26.21;100892.44;5055003;28;45499;-78
2022/07/19 10:22:15;;;;;;;;;9.00;9.00;;;;;33.60;26.37;100885.28;5074313;28;45560;-79
2022/07/19 10:24:53;;;;;;;;;9.67;9.33;;;;;33.67;26.44;100888.41;5050155;28;46744;-79
2022/07/19 10:27:36;;;;;;;;;13.00;11.67;;;;;33.72;26.02;100876.06;5076309;27;45407;-81
2022/07/19 10:30:07;;;;;;;;;10.00;10.00;;;;;33.77;26.13;100882.00;5078228;28;45597;-79
2022/07/19 10:32:33;;;;;;;;;10.33;9.33;;;;;33.86;25.71;100877.59;5077733;28;45506;-80
2022/07/19 10:35:19;;;;;;;;;9.33;9.33;;;;;33.95;25.37;100857.66;5074740;28;46899;-78
2022/07/19 10:37:46;;;;;;;;;7.33;7.33;;;;;34.02;25.28;100858.84;5075628;27;45550;-75
2022/07/19 10:40:12;;;;;;;;;8.67;8.67;;;;;34.10;25.43;100869.16;5077993;28;45378;-76
2022/07/19 10:43:04;;;;;;;;;7.00;7.00;;;;;34.21;24.84;100859.97;5077788;28;45535;-77
2022/07/19 10:45:30;;;;;;;;;8.67;8.67;;;;;34.29;25.10;100852.81;5072008;28;46209;-73
2022/07/19 10:48:05;;;;;;;;;7.33;7.33;;;;;34.34;25.01;100853.25;5077309;28;65157;-74
2022/07/19 10:50:48;;;;;;;;;9.00;8.00;;;;;34.44;24.14;100855.19;5073962;28;45598;-75
2022/07/19 10:53:41;;;;;;;;;11.33;8.00;;;;;34.53;24.50;100851.69;5078288;28;45310;-74
2022/07/19 10:56:15;;;;;;;;;8.33;8.33;;;;;34.56;24.36;100845.91;5077677;28;46376;-73
2022/07/19 10:58:47;;;;;;;;;9.67;8.00;;;;;34.65;24.37;100842.34;5077653;28;45431;-75
2022/07/19 11:01:18;;;;;;;;;11.33;8.33;;;;;34.72;24.64;100842.63;5077881;28;45366;-76
2022/07/19 11:03:45;;;;;;;;;10.00;8.00;;;;;34.81;23.95;100830.84;5077878;28;45571;-73
2022/07/19 11:06:22;;;;;;;;;10.00;8.33;;;;;34.92;23.02;100841.69;5060290;28;46453;-76
2022/07/19 11:08:48;;;;;;;;;7.67;7.00;;;;;35.01;22.55;100815.34;5077409;28;45514;-76
2022/07/19 11:11:15;;;;;;;;;9.33;9.00;;;;;35.09;23.24;100829.19;5071717;28;56893;-76
2022/07/19 11:13:59;;;;;;;;;11.67;8.67;;;;;35.15;22.78;100824.00;5076266;28;45617;-76
2022/07/19 11:16:28;;;;;;;;;9.00;8.33;;;;;35.24;23.16;100826.91;5075084;28;46751;-75
2022/07/19 11:19:07;;;;;;;;;9.33;9.00;;;;;35.33;22.92;100817.81;5056252;28;45531;-74
2022/07/19 11:21:35;;;;;;;;;12.00;8.67;;;;;35.40;23.16;100819.84;5074541;28;45487;-75